Time;durP1;ratioP1;P1;durP2;ratioP2;P2;SDS_P1;SDS_P2;PMS_P1;PMS_P2;Temp;Humidity;BMP_temperature;BMP_pressure;BME280_temperature;BME280_humidity;BME280_pressure;Samples;Min_cycle;Max_cycle;Signal;HPM_P1;HPM_P2
2023/09/25 05:04:05;;;;;;;;;5.00;5.00;;;;;;;;6231367;22;75052;-71
2023/09/25 05:06:30;;;;;;;;;5.75;5.75;;;;;;;;6247141;22;45276;-70
2023/09/25 05:08:56;;;;;;;;;4.50;4.50;;;;;;;;6247885;22;45229;-69
2023/09/25 05:11:21;;;;;;;;;8.00;6.75;;;;;;;;6247115;22;45118;-70
2023/09/25 05:13:46;;;;;;;;;7.50;5.25;;;;;;;;6246945;22;46310;-71
2023/09/25 05:16:11;;;;;;;;;8.25;5.50;;;;;;;;6247691;22;45138;-70
2023/09/25 05:18:36;;;;;;;;;6.75;6.75;;;;;;;;6244183;22;45496;-69
2023/09/25 05:21:02;;;;;;;;;10.50;7.00;;;;;;;;6247572;22;45368;-70
2023/09/25 05:23:27;;;;;;;;;7.25;7.00;;;;;;;;6245777;22;45231;-70
2023/09/25 05:25:56;;;;;;;;;6.00;6.00;;;;;;;;6247927;22;45145;-69
2023/09/25 05:28:22;;;;;;;;;8.25;6.25;;;;;;;;6245068;22;45408;-69
2023/09/25 05:30:48;;;;;;;;;9.25;7.00;;;;;;;;6246795;22;45259;-70
2023/09/25 05:33:14;;;;;;;;;7.00;7.00;;;;;;;;6246558;22;45296;-69
2023/09/25 05:35:39;;;;;;;;;7.00;5.50;;;;;;;;6219104;22;45338;-70
2023/09/25 05:38:04;;;;;;;;;7.75;7.50;;;;;;;;6247495;22;45297;-70
2023/09/25 05:40:30;;;;;;;;;10.75;7.25;;;;;;;;6247311;22;45261;-70
2023/09/25 05:42:55;;;;;;;;;10.00;10.00;;;;;;;;6244073;22;47589;-70
2023/09/25 05:45:20;;;;;;;;;12.25;7.25;;;;;;;;6219278;22;45475;-70
2023/09/25 05:47:45;;;;;;;;;10.50;7.00;;;;;;;;6218876;22;45502;-70
2023/09/25 05:50:11;;;;;;;;;13.75;8.75;;;;;;;;6245114;22;46148;-69
2023/09/25 05:52:37;;;;;;;;;9.25;7.00;;;;;;;;6244968;22;46966;-70
2023/09/25 05:55:04;;;;;;;;;9.50;8.25;;;;;;;;6247485;22;45135;-70
2023/09/25 05:57:29;;;;;;;;;12.00;9.00;;;;;;;;6246978;22;45228;-70
2023/09/25 05:59:55;;;;;;;;;10.75;10.25;;;;;;;;6247194;22;45229;-70
2023/09/25 06:02:20;;;;;;;;;7.75;7.75;;;;;;;;6245919;22;46928;-70
2023/09/25 06:04:46;;;;;;;;;14.75;11.75;;;;;;;;6247358;22;45196;-71
2023/09/25 06:07:12;;;;;;;;;10.00;10.00;;;;;;;;6245672;22;45314;-70
2023/09/25 06:09:37;;;;;;;;;15.00;9.75;;;;;;;;6246322;22;45407;-70
2023/09/25 06:12:02;;;;;;;;;9.00;9.00;;;;;;;;6241940;22;45189;-70
2023/09/25 06:14:30;;;;;;;;;13.00;8.25;;;;;;;;6244444;22;45636;-70
2023/09/25 06:16:57;;;;;;;;;8.25;8.00;;;;;;;;6245193;22;45278;-70
2023/09/25 06:19:22;;;;;;;;;10.25;9.00;;;;;;;;6246743;22;45261;-70
2023/09/25 06:21:47;;;;;;;;;7.75;6.75;;;;;;;;6246874;22;45293;-71
2023/09/25 06:24:13;;;;;;;;;9.75;9.00;;;;;;;;6246985;22;45213;-70
2023/09/25 06:26:41;;;;;;;;;8.00;8.00;;;;;;;;6247023;22;45240;-70
2023/09/25 06:29:09;;;;;;;;;10.25;8.50;;;;;;;;6244939;22;45772;-70
2023/09/25 06:31:36;;;;;;;;;11.75;10.25;;;;;;;;6246470;22;46409;-70
2023/09/25 06:34:02;;;;;;;;;6.50;6.50;;;;;;;;6219142;22;45300;-70
2023/09/25 06:36:27;;;;;;;;;10.75;8.50;;;;;;;;6247262;22;45149;-70
2023/09/25 06:38:52;;;;;;;;;8.75;8.75;;;;;;;;6246685;22;45704;-69
2023/09/25 06:41:17;;;;;;;;;8.25;8.25;;;;;;;;6247299;22;45369;-69
2023/09/25 06:43:43;;;;;;;;;8.50;8.50;;;;;;;;6246937;22;45220;-69
2023/09/25 06:46:08;;;;;;;;;8.67;6.00;;;;;;;;6247579;22;45202;-70
2023/09/25 06:48:33;;;;;;;;;8.00;6.75;;;;;;;;6246202;22;45268;-70
2023/09/25 06:50:58;;;;;;;;;6.00;6.00;;;;;;;;6244809;22;46786;-70
2023/09/25 06:53:24;;;;;;;;;8.75;6.25;;;;;;;;6246681;22;45190;-70
2023/09/25 06:55:49;;;;;;;;;5.33;5.33;;;;;;;;6246909;22;45341;-70
2023/09/25 06:58:14;;;;;;;;;3.33;3.33;;;;;;;;6246744;22;45285;-70
2023/09/25 07:00:39;;;;;;;;;9.67;7.67;;;;;;;;6247229;22;45986;-70
2023/09/25 07:03:05;;;;;;;;;7.67;7.33;;;;;;;;6246177;22;45418;-70
2023/09/25 07:05:30;;;;;;;;;8.00;8.00;;;;;;;;6247373;22;45195;-70
2023/09/25 07:07:56;;;;;;;;;7.00;7.00;;;;;;;;6246551;22;45253;-70
2023/09/25 07:10:22;;;;;;;;;7.00;7.00;;;;;;;;6245102;22;47045;-70
2023/09/25 07:12:47;;;;;;;;;7.00;6.67;;;;;;;;6244722;22;45315;-70
2023/09/25 07:15:12;;;;;;;;;7.00;6.00;;;;;;;;6247566;22;45272;-69
2023/09/25 07:17:38;;;;;;;;;6.67;5.33;;;;;;;;6246483;22;45185;-70
2023/09/25 07:20:05;;;;;;;;;6.00;5.00;;;;;;;;6246334;22;45601;-71
2023/09/25 07:22:31;;;;;;;;;9.00;6.00;;;;;;;;6218674;22;45205;-70
2023/09/25 07:24:56;;;;;;;;;7.33;6.00;;;;;;;;6247314;22;45229;-70
2023/09/25 07:27:22;;;;;;;;;7.67;5.00;;;;;;;;6246667;22;45140;-71
2023/09/25 07:29:47;;;;;;;;;6.67;6.33;;;;;;;;6246981;22;46233;-71
2023/09/25 07:32:13;;;;;;;;;7.00;7.00;;;;;;;;6246337;22;45623;-70
2023/09/25 07:34:39;;;;;;;;;7.00;7.00;;;;;;;;6247335;22;45157;-71
2023/09/25 07:37:05;;;;;;;;;7.00;5.33;;;;;;;;6243570;22;45652;-72
2023/09/25 07:39:30;;;;;;;;;6.00;6.00;;;;;;;;6247017;22;45856;-71
2023/09/25 07:41:56;;;;;;;;;7.67;6.67;;;;;;;;6246863;22;45332;-71
2023/09/25 07:44:26;;;;;;;;;7.00;7.00;;;;;;;;6246799;22;45261;-71
2023/09/25 07:46:51;;;;;;;;;6.33;6.00;;;;;;;;6245599;22;46002;-71
2023/09/25 07:49:18;;;;;;;;;6.67;5.67;;;;;;;;6246623;22;46333;-70
2023/09/25 07:51:43;;;;;;;;;7.00;7.00;;;;;;;;6244671;22;45816;-70
2023/09/25 07:54:08;;;;;;;;;11.33;7.00;;;;;;;;6246614;22;45528;-70
2023/09/25 07:56:34;;;;;;;;;6.33;6.33;;;;;;;;6243983;22;45616;-70
2023/09/25 07:59:00;;;;;;;;;7.00;7.00;;;;;;;;6246890;22;45199;-70
2023/09/25 08:01:29;;;;;;;;;8.33;8.00;;;;;;;;6246572;22;45162;-71
2023/09/25 08:03:56;;;;;;;;;8.00;5.67;;;;;;;;6245712;22;45348;-71
2023/09/25 08:06:24;;;;;;;;;6.00;5.67;;;;;;;;6246501;22;45173;-71
2023/09/25 08:08:49;;;;;;;;;7.00;7.00;;;;;;;;6246153;22;46043;-70
2023/09/25 08:11:15;;;;;;;;;6.67;6.67;;;;;;;;6245348;22;45213;-71
2023/09/25 08:13:40;;;;;;;;;6.00;6.00;;;;;;;;6246559;22;45162;-71
2023/09/25 08:16:05;;;;;;;;;5.00;5.00;;;;;;;;6246746;22;45093;-70
2023/09/25 08:18:31;;;;;;;;;8.33;6.67;;;;;;;;6242837;22;46727;-70
2023/09/25 08:20:56;;;;;;;;;6.00;5.00;;;;;;;;6246760;22;45295;-70
2023/09/25 08:23:21;;;;;;;;;9.00;5.67;;;;;;;;6246007;22;45236;-70
2023/09/25 08:25:46;;;;;;;;;6.67;6.67;;;;;;;;6218844;22;45627;-70
2023/09/25 08:28:13;;;;;;;;;6.33;5.67;;;;;;;;6246015;22;46081;-71
2023/09/25 08:30:39;;;;;;;;;8.33;6.67;;;;;;;;6245518;22;45304;-70
2023/09/25 08:33:04;;;;;;;;;8.33;6.00;;;;;;;;6245709;22;45196;-70
2023/09/25 08:35:29;;;;;;;;;8.67;6.33;;;;;;;;6246695;22;45313;-70
2023/09/25 08:37:54;;;;;;;;;7.00;5.67;;;;;;;;6246427;22;46094;-70
2023/09/25 08:40:20;;;;;;;;;7.67;7.67;;;;;;;;6246784;22;45249;-70
2023/09/25 08:42:46;;;;;;;;;5.00;5.00;;;;;;;;6246453;22;45502;-70
2023/09/25 08:45:11;;;;;;;;;6.00;5.00;;;;;;;;6246695;22;45251;-70
2023/09/25 08:47:36;;;;;;;;;5.00;5.00;;;;;;;;6245695;22;45999;-71
2023/09/25 08:50:02;;;;;;;;;6.00;6.00;;;;;;;;6246547;22;45236;-70
2023/09/25 08:52:28;;;;;;;;;6.67;5.00;;;;;;;;6243883;22;45312;-70
2023/09/25 08:54:53;;;;;;;;;5.33;5.33;;;;;;;;6247146;22;45213;-70
2023/09/25 08:57:19;;;;;;;;;9.33;6.33;;;;;;;;6246060;22;45159;-71
2023/09/25 08:59:44;;;;;;;;;7.00;4.67;;;;;;;;6246157;22;45148;-71
2023/09/25 09:02:10;;;;;;;;;5.33;5.33;;;;;;;;6245635;22;45161;-70
2023/09/25 09:04:35;;;;;;;;;5.67;5.67;;;;;;;;6246057;22;45527;-75
2023/09/25 09:07:01;;;;;;;;;6.00;5.67;;;;;;;;6245893;22;45214;-74
2023/09/25 09:09:26;;;;;;;;;8.33;5.00;;;;;;;;6246037;22;45268;-81
2023/09/25 09:11:52;;;;;;;;;7.00;7.00;;;;;;;;6244116;22;45224;-74
2023/09/25 09:14:36;;;;;;;;;5.67;5.67;;;;;;;;6245356;22;45431;-74
2023/09/25 09:17:04;;;;;;;;;4.67;3.33;;;;;;;;6245916;22;45247;-75
2023/09/25 09:19:33;;;;;;;;;6.00;6.00;;;;;;;;6243818;22;45295;-80
2023/09/25 09:22:02;;;;;;;;;4.00;4.00;;;;;;;;6245635;22;45248;-75
2023/09/25 09:24:28;;;;;;;;;7.00;7.00;;;;;;;;6246139;22;45281;-75
2023/09/25 09:26:53;;;;;;;;;10.33;6.00;;;;;;;;6245247;22;45307;-76
2023/09/25 09:29:19;;;;;;;;;7.67;6.67;;;;;;;;6246047;22;45370;-75
2023/09/25 09:31:44;;;;;;;;;8.00;7.00;;;;;;;;6245279;22;45275;-75
2023/09/25 09:34:10;;;;;;;;;7.00;5.00;;;;;;;;6245063;22;45226;-75
2023/09/25 09:36:35;;;;;;;;;3.33;3.33;;;;;;;;6245660;22;46210;-74
2023/09/25 09:39:03;;;;;;;;;7.25;5.25;;;;;;;;6245829;22;45291;-74
2023/09/25 09:41:29;;;;;;;;;7.00;5.00;;;;;;;;6245369;22;45157;-75
2023/09/25 09:43:54;;;;;;;;;6.00;6.00;;;;;;;;6246476;22;45483;-75
2023/09/25 09:46:23;;;;;;;;;8.75;6.00;;;;;;;;6247198;22;46225;-74
2023/09/25 09:48:50;;;;;;;;;7.50;5.50;;;;;;;;6246331;22;45265;-74
2023/09/25 09:51:17;;;;;;;;;4.25;4.25;;;;;;;;6248058;22;45220;-75
2023/09/25 09:53:43;;;;;;;;;6.00;4.25;;;;;;;;6244961;22;46380;-74
2023/09/25 09:56:08;;;;;;;;;10.00;6.00;;;;;;;;6219821;22;47875;-75
2023/09/25 09:58:36;;;;;;;;;5.75;5.75;;;;;;;;6246940;22;45249;-75
2023/09/25 10:01:02;;;;;;;;;4.00;4.00;;;;;;;;6247586;22;45181;-74
2023/09/25 10:03:29;;;;;;;;;8.75;5.00;;;;;;;;6246017;22;45258;-75
2023/09/25 10:05:55;;;;;;;;;4.50;3.50;;;;;;;;6246820;22;46087;-75
2023/09/25 10:08:21;;;;;;;;;6.25;6.00;;;;;;;;6244841;22;45277;-75
2023/09/25 10:10:51;;;;;;;;;6.50;5.00;;;;;;;;6247483;22;45316;-75
2023/09/25 10:13:24;;;;;;;;;7.50;5.25;;;;;;;;6247299;22;45358;-75
2023/09/25 10:15:52;;;;;;;;;5.00;5.00;;;;;;;;6244622;22;47428;-76
2023/09/25 10:18:18;;;;;;;;;8.50;6.50;;;;;;;;6246709;22;45435;-75
2023/09/25 10:20:45;;;;;;;;;2.00;2.00;;;;;;;;6247573;22;45193;-76
2023/09/25 10:23:16;;;;;;;;;6.50;5.00;;;;;;;;6247289;22;45543;-76
2023/09/25 10:25:46;;;;;;;;;5.75;5.00;;;;;;;;6246651;22;46259;-76
2023/09/25 10:28:15;;;;;;;;;5.00;5.00;;;;;;;;6246921;22;45295;-75
2023/09/25 10:30:40;;;;;;;;;6.50;5.75;;;;;;;;6247535;22;45157;-76
2023/09/25 10:33:06;;;;;;;;;5.25;4.25;;;;;;;;6246589;22;45219;-75
2023/09/25 10:35:47;;;;;;;;;6.50;5.00;;;;;;;;6247144;22;46365;-75
2023/09/25 10:38:19;;;;;;;;;5.00;5.00;;;;;;;;6246591;22;45260;-75
2023/09/25 10:40:45;;;;;;;;;6.50;5.75;;;;;;;;6247147;22;45323;-75
2023/09/25 10:43:11;;;;;;;;;6.00;6.00;;;;;;;;6244143;22;45372;-74
2023/09/25 10:45:37;;;;;;;;;6.25;5.25;;;;;;;;6243926;22;46194;-74
2023/09/25 10:48:02;;;;;;;;;6.50;6.50;;;;;;;;6246319;22;45237;-74
2023/09/25 10:50:28;;;;;;;;;4.00;4.00;;;;;;;;6247389;22;45187;-74
2023/09/25 10:52:53;;;;;;;;;5.25;5.25;;;;;;;;6246866;22;45198;-75
2023/09/25 10:55:20;;;;;;;;;8.75;7.00;;;;;;;;6246698;22;46065;-74
2023/09/25 10:57:45;;;;;;;;;5.20;3.80;;;;;;;;6246372;22;45237;-75
2023/09/25 11:00:15;;;;;;;;;4.25;4.25;;;;;;;;6245185;22;45672;-74
2023/09/25 11:02:40;;;;;;;;;7.50;5.50;;;;;;;;6243641;22;45439;-75
2023/09/25 11:05:07;;;;;;;;;7.50;5.00;;;;;;;;6247046;22;45198;-75
2023/09/25 11:07:35;;;;;;;;;9.40;6.40;;;;;;;;6246001;22;45272;-74
2023/09/25 11:10:01;;;;;;;;;4.50;4.50;;;;;;;;6246646;22;45102;-74
2023/09/25 11:12:26;;;;;;;;;4.00;4.00;;;;;;;;6246868;22;45158;-74
2023/09/25 11:14:51;;;;;;;;;4.25;4.25;;;;;;;;6247286;22;46286;-74
2023/09/25 11:17:16;;;;;;;;;4.00;4.00;;;;;;;;6246366;22;45298;-74
2023/09/25 11:19:45;;;;;;;;;3.50;3.50;;;;;;;;6247337;22;45224;-75
2023/09/25 11:22:11;;;;;;;;;6.20;3.20;;;;;;;;6244574;22;45311;-74
2023/09/25 11:24:36;;;;;;;;;5.50;4.50;;;;;;;;6246810;22;45762;-74
2023/09/25 11:27:07;;;;;;;;;5.00;3.50;;;;;;;;6246689;22;45217;-75
2023/09/25 11:29:33;;;;;;;;;5.20;5.00;;;;;;;;6243763;22;45384;-74
2023/09/25 11:31:58;;;;;;;;;8.00;8.00;;;;;;;;6246083;22;45261;-74
2023/09/25 11:34:23;;;;;;;;;7.00;4.00;;;;;;;;6246346;22;45335;-74
2023/09/25 11:36:49;;;;;;;;;3.25;3.25;;;;;;;;6246716;22;45217;-75
2023/09/25 11:39:14;;;;;;;;;5.00;4.00;;;;;;;;6247317;22;45272;-75
2023/09/25 11:41:40;;;;;;;;;4.00;3.25;;;;;;;;6246835;22;45473;-73
2023/09/25 11:44:06;;;;;;;;;4.25;4.25;;;;;;;;6246590;22;46904;-74
2023/09/25 11:46:31;;;;;;;;;5.25;5.25;;;;;;;;6245851;22;45296;-74
2023/09/25 11:48:56;;;;;;;;;6.75;5.75;;;;;;;;6247052;22;45189;-74
2023/09/25 11:51:21;;;;;;;;;5.00;4.00;;;;;;;;6246786;22;45328;-73
2023/09/25 11:53:48;;;;;;;;;6.50;4.50;;;;;;;;6246541;22;45803;-74
2023/09/25 11:56:13;;;;;;;;;4.00;3.20;;;;;;;;6247480;22;45297;-72
2023/09/25 11:58:39;;;;;;;;;3.75;2.75;;;;;;;;6245120;22;45145;-75
2023/09/25 12:01:05;;;;;;;;;4.00;3.00;;;;;;;;6246200;22;45424;-74
2023/09/25 12:03:38;;;;;;;;;2.50;2.50;;;;;;;;6245489;22;45196;-74
2023/09/25 12:06:03;;;;;;;;;3.20;3.20;;;;;;;;6245097;22;45277;-74
2023/09/25 12:08:28;;;;;;;;;5.00;3.00;;;;;;;;6244079;22;45146;-75
2023/09/25 12:10:55;;;;;;;;;3.75;3.75;;;;;;;;6246551;22;45216;-75
2023/09/25 12:13:20;;;;;;;;;4.20;3.40;;;;;;;;6243543;22;46771;-74
2023/09/25 12:15:45;;;;;;;;;3.25;3.25;;;;;;;;6246736;22;45173;-74
2023/09/25 12:18:11;;;;;;;;;4.00;3.25;;;;;;;;6243475;22;45288;-74
2023/09/25 12:20:36;;;;;;;;;5.00;5.00;;;;;;;;6244185;22;47107;-74
2023/09/25 12:23:02;;;;;;;;;5.25;4.25;;;;;;;;6246308;22;45296;-73
2023/09/25 12:25:27;;;;;;;;;3.00;3.00;;;;;;;;6246835;22;45258;-74
2023/09/25 12:27:52;;;;;;;;;6.00;5.50;;;;;;;;6246086;22;45237;-74
2023/09/25 12:30:18;;;;;;;;;5.25;5.00;;;;;;;;6246700;22;45236;-74
2023/09/25 12:32:44;;;;;;;;;4.25;3.75;;;;;;;;6245874;22;45264;-73
2023/09/25 12:35:10;;;;;;;;;3.25;3.25;;;;;;;;6246321;22;45201;-74
2023/09/25 12:37:35;;;;;;;;;5.80;5.20;;;;;;;;6246026;22;45288;-74
2023/09/25 12:40:00;;;;;;;;;4.75;4.50;;;;;;;;6246703;22;45883;-74
2023/09/25 12:42:26;;;;;;;;;5.00;4.50;;;;;;;;6245967;22;45644;-72
2023/09/25 12:44:51;;;;;;;;;3.25;3.00;;;;;;;;6246644;22;45268;-74
2023/09/25 12:47:17;;;;;;;;;5.75;4.50;;;;;;;;6245728;22;45259;-74
2023/09/25 12:49:42;;;;;;;;;3.25;3.25;;;;;;;;6246169;22;45177;-74
2023/09/25 12:52:08;;;;;;;;;4.00;4.00;;;;;;;;6246427;22;45188;-74
2023/09/25 12:54:33;;;;;;;;;6.00;4.00;;;;;;;;6246468;22;45118;-72
2023/09/25 12:56:58;;;;;;;;;3.25;3.25;;;;;;;;6246125;22;45223;-74
2023/09/25 12:59:23;;;;;;;;;6.00;4.00;;;;;;;;6246199;22;45467;-73
2023/09/25 13:01:49;;;;;;;;;6.50;3.75;;;;;;;;6245595;22;45412;-74
2023/09/25 13:04:14;;;;;;;;;6.25;5.00;;;;;;;;6245769;22;45168;-74
2023/09/25 13:06:39;;;;;;;;;4.50;4.50;;;;;;;;6244113;22;45190;-74
2023/09/25 13:09:05;;;;;;;;;6.75;5.00;;;;;;;;6245804;22;45419;-75
2023/09/25 13:11:34;;;;;;;;;5.75;5.75;;;;;;;;6245815;22;45193;-75
2023/09/25 13:14:02;;;;;;;;;4.60;4.60;;;;;;;;6245506;22;45379;-75
2023/09/25 13:16:28;;;;;;;;;7.80;6.00;;;;;;;;6244349;22;45233;-75
2023/09/25 13:18:53;;;;;;;;;3.75;3.75;;;;;;;;6246954;22;45380;-74
2023/09/25 13:21:18;;;;;;;;;5.00;4.25;;;;;;;;6219631;22;46823;-74
2023/09/25 13:23:43;;;;;;;;;6.00;4.75;;;;;;;;6219214;22;45340;-74
2023/09/25 13:26:08;;;;;;;;;4.25;4.25;;;;;;;;6245734;22;45221;-74
2023/09/25 13:28:34;;;;;;;;;7.50;6.75;;;;;;;;6247190;22;45426;-73
2023/09/25 13:30:59;;;;;;;;;9.50;7.00;;;;;;;;6247213;22;46001;-74
2023/09/25 13:33:24;;;;;;;;;4.00;4.00;;;;;;;;6219370;22;45205;-74
2023/09/25 13:35:50;;;;;;;;;7.50;6.00;;;;;;;;6247731;22;45355;-74
2023/09/25 13:38:15;;;;;;;;;4.00;4.00;;;;;;;;6247276;22;45439;-74
2023/09/25 13:40:40;;;;;;;;;5.75;5.75;;;;;;;;6247187;22;46097;-74
2023/09/25 13:43:05;;;;;;;;;5.00;5.00;;;;;;;;6247117;22;45220;-74
2023/09/25 13:45:30;;;;;;;;;7.25;5.25;;;;;;;;6247857;22;45387;-74
2023/09/25 13:47:56;;;;;;;;;7.75;5.50;;;;;;;;6246514;22;45431;-74
2023/09/25 13:50:21;;;;;;;;;3.00;3.00;;;;;;;;6247455;22;45932;-74
2023/09/25 13:52:47;;;;;;;;;3.50;3.50;;;;;;;;6247110;22;45145;-73
2023/09/25 13:55:15;;;;;;;;;3.75;3.75;;;;;;;;6248143;22;45398;-74
2023/09/25 13:57:40;;;;;;;;;6.40;3.60;;;;;;;;6246589;22;45395;-73
2023/09/25 14:00:08;;;;;;;;;3.25;3.25;;;;;;;;6247342;22;46212;-73
2023/09/25 14:02:33;;;;;;;;;3.60;3.20;;;;;;;;6246204;22;45272;-74
2023/09/25 14:04:58;;;;;;;;;2.25;2.25;;;;;;;;6245643;22;45395;-73
2023/09/25 14:07:23;;;;;;;;;3.00;3.00;;;;;;;;6247201;22;45361;-74
2023/09/25 14:09:49;;;;;;;;;3.00;2.00;;;;;;;;6247284;22;45217;-74
2023/09/25 14:12:14;;;;;;;;;2.25;2.00;;;;;;;;6246942;22;45143;-74
2023/09/25 14:14:44;;;;;;;;;4.00;3.00;;;;;;;;6247502;22;45199;-73
2023/09/25 14:17:09;;;;;;;;;5.00;2.80;;;;;;;;6246249;22;45437;-73
2023/09/25 14:19:35;;;;;;;;;2.00;2.00;;;;;;;;6247302;22;45400;-73
2023/09/25 14:22:00;;;;;;;;;3.50;2.25;;;;;;;;6218961;22;45222;-74
2023/09/25 14:24:26;;;;;;;;;3.00;3.00;;;;;;;;6247526;22;45298;-75
2023/09/25 14:26:52;;;;;;;;;3.25;2.75;;;;;;;;6246848;22;45253;-74
2023/09/25 14:29:18;;;;;;;;;7.00;4.50;;;;;;;;6245583;22;46408;-74
2023/09/25 14:31:43;;;;;;;;;3.50;3.50;;;;;;;;6245033;22;45137;-71
2023/09/25 14:34:09;;;;;;;;;3.50;2.00;;;;;;;;6247233;22;45400;-70
2023/09/25 14:36:34;;;;;;;;;2.75;2.50;;;;;;;;6246423;22;45535;-70
2023/09/25 14:39:00;;;;;;;;;2.00;1.25;;;;;;;;6246875;22;45193;-70
2023/09/25 14:41:25;;;;;;;;;26.50;25.50;;;;;;;;6246793;22;45371;-70
2023/09/25 14:43:50;;;;;;;;;2.50;2.50;;;;;;;;6244283;22;45210;-70
2023/09/25 14:46:15;;;;;;;;;2.50;2.25;;;;;;;;6246593;22;45196;-70
2023/09/25 14:48:46;;;;;;;;;2.00;1.00;;;;;;;;6246264;22;46449;-70
2023/09/25 14:51:11;;;;;;;;;1.00;1.00;;;;;;;;6246909;22;45272;-71
2023/09/25 14:53:36;;;;;;;;;1.00;1.00;;;;;;;;6246975;22;45220;-70
2023/09/25 14:56:01;;;;;;;;;1.00;1.00;;;;;;;;6247227;22;45300;-70
2023/09/25 14:58:26;;;;;;;;;1.00;1.00;;;;;;;;6246975;22;46023;-70
2023/09/25 15:00:56;;;;;;;;;0.25;0.25;;;;;;;;6244880;22;45280;-71
2023/09/25 15:03:21;;;;;;;;;0.60;0.60;;;;;;;;6244755;22;45287;-71
2023/09/25 15:05:49;;;;;;;;;1.00;0.00;;;;;;;;6247012;22;45446;-71
2023/09/25 15:08:14;;;;;;;;;1.00;1.00;;;;;;;;6246303;22;45225;-71
2023/09/25 15:10:39;;;;;;;;;0.25;0.25;;;;;;;;6247016;22;45165;-71
2023/09/25 15:13:04;;;;;;;;;1.00;0.00;;;;;;;;6247017;22;45428;-70
2023/09/25 15:15:30;;;;;;;;;0.75;0.50;;;;;;;;6246827;22;45357;-70
2023/09/25 15:17:55;;;;;;;;;2.50;1.00;;;;;;;;6246323;22;45256;-70
2023/09/25 15:20:20;;;;;;;;;1.00;1.00;;;;;;;;6219569;22;45371;-71
2023/09/25 15:22:45;;;;;;;;;1.00;1.00;;;;;;;;6246543;22;45372;-71
2023/09/25 15:25:11;;;;;;;;;1.00;1.00;;;;;;;;6247267;22;45216;-71
2023/09/25 15:27:36;;;;;;;;;0.00;0.00;;;;;;;;6219156;22;47179;-71
2023/09/25 15:30:01;;;;;;;;;1.00;1.00;;;;;;;;6247072;22;45312;-71
2023/09/25 15:32:26;;;;;;;;;2.00;2.00;;;;;;;;6244212;22;45462;-71
2023/09/25 15:34:52;;;;;;;;;0.00;0.00;;;;;;;;6247067;22;45395;-70
2023/09/25 15:37:17;;;;;;;;;0.75;0.75;;;;;;;;6246629;22;45245;-71
2023/09/25 15:39:42;;;;;;;;;0.00;0.00;;;;;;;;6247063;22;45295;-70
2023/09/25 15:42:07;;;;;;;;;0.50;0.50;;;;;;;;6246597;22;45241;-70
2023/09/25 15:44:33;;;;;;;;;1.00;0.00;;;;;;;;6246653;22;45514;-70
2023/09/25 15:46:58;;;;;;;;;1.00;1.00;;;;;;;;6246037;22;45396;-70
2023/09/25 15:49:23;;;;;;;;;2.00;0.25;;;;;;;;6246511;22;45214;-70
2023/09/25 15:51:49;;;;;;;;;0.75;0.75;;;;;;;;6246544;22;45142;-70
2023/09/25 15:54:14;;;;;;;;;0.25;0.25;;;;;;;;6246483;22;45203;-70
2023/09/25 15:56:39;;;;;;;;;0.00;0.00;;;;;;;;6246591;22;45377;-70
2023/09/25 15:59:04;;;;;;;;;0.25;0.25;;;;;;;;6246726;22;45161;-70
2023/09/25 16:01:30;;;;;;;;;0.00;0.00;;;;;;;;6246304;22;45165;-70
2023/09/25 16:03:55;;;;;;;;;0.00;0.00;;;;;;;;6245888;22;45520;-70
2023/09/25 16:06:20;;;;;;;;;0.00;0.00;;;;;;;;6246880;22;46473;-70
2023/09/25 16:08:45;;;;;;;;;0.50;0.00;;;;;;;;6246180;22;45228;-71
2023/09/25 16:11:10;;;;;;;;;0.00;0.00;;;;;;;;6247164;22;45351;-71
2023/09/25 16:13:36;;;;;;;;;0.00;0.00;;;;;;;;6246247;22;45201;-71
2023/09/25 16:16:01;;;;;;;;;0.00;0.00;;;;;;;;6247081;22;45119;-71
2023/09/25 16:18:26;;;;;;;;;0.00;0.00;;;;;;;;6246097;22;45216;-70
2023/09/25 16:20:51;;;;;;;;;1.00;1.00;;;;;;;;6247181;22;45201;-71
2023/09/25 16:23:17;;;;;;;;;0.00;0.00;;;;;;;;6246133;22;45232;-70
2023/09/25 16:25:42;;;;;;;;;1.00;1.00;;;;;;;;6219315;22;46662;-71
2023/09/25 16:28:07;;;;;;;;;1.25;1.00;;;;;;;;6246207;22;45298;-71
2023/09/25 16:30:32;;;;;;;;;0.00;0.00;;;;;;;;6247073;22;45541;-70
2023/09/25 16:32:57;;;;;;;;;1.00;1.00;;;;;;;;6245534;22;45272;-70
2023/09/25 16:35:23;;;;;;;;;1.00;0.25;;;;;;;;6246746;22;45398;-70
2023/09/25 16:37:48;;;;;;;;;0.00;0.00;;;;;;;;6242949;22;45312;-71
2023/09/25 16:40:13;;;;;;;;;0.00;0.00;;;;;;;;6247073;22;45288;-72
2023/09/25 16:42:39;;;;;;;;;1.75;0.25;;;;;;;;6246252;22;45268;-72
2023/09/25 16:45:04;;;;;;;;;1.00;1.00;;;;;;;;6246752;22;45836;-70
2023/09/25 16:47:30;;;;;;;;;0.00;0.00;;;;;;;;6245855;22;45237;-70
2023/09/25 16:49:55;;;;;;;;;0.00;0.00;;;;;;;;6245394;22;45288;-72
2023/09/25 16:52:20;;;;;;;;;2.00;1.00;;;;;;;;6218089;22;46541;-71
2023/09/25 16:54:45;;;;;;;;;1.25;1.25;;;;;;;;6247732;22;45981;-71
2023/09/25 16:57:12;;;;;;;;;0.75;0.75;;;;;;;;6247548;22;45273;-72
2023/09/25 16:59:37;;;;;;;;;0.00;0.00;;;;;;;;6246981;22;45248;-72
2023/09/25 17:02:02;;;;;;;;;1.00;1.00;;;;;;;;6247070;22;45268;-70
2023/09/25 17:04:27;;;;;;;;;0.00;0.00;;;;;;;;6246944;22;45743;-71
2023/09/25 17:06:53;;;;;;;;;1.75;1.00;;;;;;;;6247352;22;45225;-71
2023/09/25 17:09:18;;;;;;;;;0.25;0.25;;;;;;;;6247735;22;45139;-71
2023/09/25 17:11:43;;;;;;;;;0.25;0.25;;;;;;;;6247329;22;45360;-71
2023/09/25 17:14:09;;;;;;;;;1.00;1.00;;;;;;;;6247780;22;45140;-71
2023/09/25 17:16:35;;;;;;;;;42.00;35.00;;;;;;;;6246999;22;45245;-72
2023/09/25 17:19:00;;;;;;;;;13.75;13.50;;;;;;;;6247282;22;45205;-72
2023/09/25 17:21:26;;;;;;;;;3.50;3.50;;;;;;;;6247081;22;45414;-72
2023/09/25 17:23:51;;;;;;;;;2.75;1.75;;;;;;;;6247352;22;45986;-71
2023/09/25 17:26:19;;;;;;;;;14.00;12.75;;;;;;;;6247713;22;45114;-71
2023/09/25 17:28:44;;;;;;;;;3.00;3.00;;;;;;;;6247554;22;45294;-71
2023/09/25 17:31:09;;;;;;;;;5.50;3.50;;;;;;;;6247450;22;45325;-72
2023/09/25 17:33:35;;;;;;;;;6.25;6.00;;;;;;;;6247021;22;45359;-72
2023/09/25 17:36:00;;;;;;;;;25.00;20.67;;;;;;;;6247283;22;45322;-71
2023/09/25 17:38:26;;;;;;;;;13.50;11.75;;;;;;;;6247350;22;45356;-71
2023/09/25 17:40:52;;;;;;;;;4.75;4.50;;;;;;;;6247360;22;45292;-71
2023/09/25 17:43:17;;;;;;;;;9.00;7.25;;;;;;;;6247333;22;45976;-72
2023/09/25 17:45:43;;;;;;;;;2.25;2.25;;;;;;;;6247796;22;45196;-72
2023/09/25 17:48:08;;;;;;;;;3.00;2.00;;;;;;;;6247063;22;45189;-70
2023/09/25 17:50:33;;;;;;;;;4.75;3.00;;;;;;;;6247665;22;45512;-71
2023/09/25 17:52:58;;;;;;;;;2.00;2.00;;;;;;;;6245202;22;45926;-72
2023/09/25 17:55:24;;;;;;;;;2.00;2.00;;;;;;;;6245564;22;45170;-70
2023/09/25 17:57:49;;;;;;;;;4.00;2.75;;;;;;;;6247401;22;45217;-71
2023/09/25 18:00:15;;;;;;;;;2.75;2.50;;;;;;;;6245312;22;47382;-73
2023/09/25 18:02:41;;;;;;;;;3.50;2.25;;;;;;;;6244894;22;46163;-72
2023/09/25 18:05:07;;;;;;;;;1.50;1.50;;;;;;;;6247482;22;45205;-72
2023/09/25 18:07:32;;;;;;;;;3.00;3.00;;;;;;;;6246295;22;45220;-72
2023/09/25 18:09:58;;;;;;;;;6.25;5.25;;;;;;;;6247360;22;45499;-70
2023/09/25 18:12:23;;;;;;;;;2.75;2.75;;;;;;;;6246916;22;45332;-70
2023/09/25 18:14:48;;;;;;;;;25.33;25.33;;;;;;;;6247473;22;45296;-70
2023/09/25 18:17:13;;;;;;;;;33.67;30.00;;;;;;;;6246810;22;45241;-70
2023/09/25 18:19:38;;;;;;;;;12.67;12.00;;;;;;;;6247206;22;45272;-71
2023/09/25 18:22:04;;;;;;;;;47.33;39.33;;;;;;;;6244890;22;47086;-70
2023/09/25 18:24:29;;;;;;;;;45.00;35.33;;;;;;;;6219459;22;45233;-71
2023/09/25 18:26:54;;;;;;;;;40.67;33.33;;;;;;;;6247472;22;45485;-70
2023/09/25 18:29:19;;;;;;;;;44.67;36.00;;;;;;;;6247057;22;45284;-72
2023/09/25 18:31:45;;;;;;;;;41.00;34.33;;;;;;;;6246712;22;45303;-72
2023/09/25 18:34:11;;;;;;;;;70.75;54.25;;;;;;;;6247216;22;45272;-72
2023/09/25 18:36:36;;;;;;;;;35.67;31.67;;;;;;;;6247304;22;45272;-72
2023/09/25 18:39:02;;;;;;;;;41.00;35.67;;;;;;;;6246947;22;45205;-72
2023/09/25 18:41:28;;;;;;;;;41.33;33.67;;;;;;;;6247365;22;45264;-71
2023/09/25 18:43:53;;;;;;;;;30.67;30.00;;;;;;;;6247002;22;45232;-71
2023/09/25 18:46:20;;;;;;;;;36.33;33.33;;;;;;;;6244328;22;45251;-71
2023/09/25 18:48:46;;;;;;;;;17.50;13.50;;;;;;;;6246493;22;45380;-72
2023/09/25 18:51:11;;;;;;;;;28.67;23.67;;;;;;;;6245231;22;47016;-72
2023/09/25 18:53:36;;;;;;;;;11.00;10.00;;;;;;;;6247014;22;45206;-72
2023/09/25 18:56:03;;;;;;;;;13.67;11.00;;;;;;;;6247336;22;45464;-72
2023/09/25 18:58:28;;;;;;;;;10.67;8.33;;;;;;;;6246734;22;45335;-72
2023/09/25 19:00:54;;;;;;;;;8.00;7.33;;;;;;;;6245301;22;47040;-72
2023/09/25 19:03:19;;;;;;;;;11.00;8.00;;;;;;;;6245658;22;45248;-69
2023/09/25 19:05:44;;;;;;;;;7.33;5.33;;;;;;;;6247116;22;45382;-70
2023/09/25 19:08:10;;;;;;;;;9.67;8.00;;;;;;;;6246507;22;45256;-72
2023/09/25 19:10:35;;;;;;;;;8.67;5.67;;;;;;;;6246449;22;45964;-72
2023/09/25 19:13:02;;;;;;;;;6.33;6.33;;;;;;;;6244902;22;45197;-72
2023/09/25 19:15:27;;;;;;;;;13.00;13.00;;;;;;;;6247143;22;45287;-72
2023/09/25 19:17:52;;;;;;;;;5.25;5.25;;;;;;;;6246227;22;45395;-71
2023/09/25 19:20:17;;;;;;;;;7.67;6.67;;;;;;;;6247396;22;46527;-72
2023/09/25 19:22:43;;;;;;;;;9.00;9.00;;;;;;;;6246848;22;45249;-72
2023/09/25 19:25:09;;;;;;;;;6.00;6.00;;;;;;;;6247400;22;45209;-72
2023/09/25 19:27:34;;;;;;;;;8.67;8.67;;;;;;;;6246673;22;45230;-71
2023/09/25 19:29:59;;;;;;;;;7.33;7.33;;;;;;;;6218852;22;47777;-72
2023/09/25 19:32:25;;;;;;;;;10.00;9.00;;;;;;;;6246137;22;45359;-73
2023/09/25 19:34:50;;;;;;;;;12.00;9.67;;;;;;;;6247158;22;45134;-72